• Join FlightAware (Why Join?)
  • Login
  • US Flag 
06:46AM EDT


 

Airport Tracker/Info


-or-


 

Live Flight TrackerFlight Track Log ✈ SWA1385 ✈ 27-Apr-2013 ✈ KPIT - KPHX

Flight Track Log - Related Links

Times and Time Zones

All times are in EDT time to prevent confusion due to time zone crossing. See the SWA1385 flight status page for this flight to view local times or setup timezone preferences in your user account.

Time Position Orientation Groundspeed Altitude Reporting Facility
EDT Latitude Longitude Course Direction KTS MPH feet Rate Location/Type
03:10PM 40.6167 -80.1564 266° West 303 349 8,300  Level Cleveland Center
03:11PM 40.6461 -80.2467 293° West 329 379 11,400 2,760 Climbing Cleveland Center
03:12PM 40.6319 -80.3642 261° West 361 415 13,900 2,640 Climbing Cleveland Center
03:13PM 40.6236 -80.4983 265° West 371 427 16,700 2,700 Climbing Cleveland Center
03:14PM 40.4667 -81.0711 270° West  Level FlightAware Approximate
03:14PM 40.6092 -80.6486 263° West 371 427 19,400  Level Cleveland Center
03:15PM 40.4599 -81.2137 266° West  Level FlightAware Approximate
03:15PM 40.5964 -80.7744 262° West 378 435 22,000  Level Cleveland Center
03:16PM 40.5817 -80.9247 263° West 397 457 23,600 1,920 Climbing Cleveland Center
03:17PM 40.5664 -81.0806 263° West 423 487 25,900 2,160 Climbing Cleveland Center
03:18PM 40.5531 -81.2333 263° West 430 495 28,000 720 Climbing Cleveland Center
03:20PM 40.5231 -81.5075 262° West 423 487 28,000 540 Level Indianapolis Center
03:21PM 40.5044 -81.6856 262° West 418 481 29,700 2,040 Climbing Indianapolis Center
03:22PM 40.4900 -81.8222 262° West 381 438 32,200 2,040 Climbing Indianapolis Center
03:23PM 40.4761 -81.9600 262° West 377 434 34,000 960 Climbing Indianapolis Center
03:24PM 40.4606 -82.0956 261° West 372 428 34,200 1,140 Climbing Indianapolis Center
03:25PM 40.4494 -82.2281 264° West 363 418 36,400 1,560 Climbing Indianapolis Center
03:26PM 40.4394 -82.3586 264° West 356 410 37,400 840 Climbing Indianapolis Center
03:27PM 40.4272 -82.4961 263° West 372 428 38,200 780 Climbing Indianapolis Center
03:28PM 40.4161 -82.6361 264° West 381 438 39,100 780 Climbing Indianapolis Center
03:29PM 40.4042 -82.7764 264° West 385 443 39,900 420 Climbing Indianapolis Center
03:30PM 40.3914 -82.9244 264° West 391 450 40,000  Climbing Indianapolis Center
03:31PM 40.3783 -83.0681 263° West 393 452 40,000  Level Indianapolis Center
03:32PM 40.3658 -83.2125 264° West 396 456 40,000  Level Indianapolis Center
03:33PM 40.3528 -83.3561 263° West 396 456 40,000  Level Indianapolis Center
03:34PM 40.3367 -83.5258 263° West 400 460 40,000  Level Indianapolis Center
03:35PM 40.3236 -83.6708 263° West 401 461 40,000  Level Indianapolis Center
03:36PM 40.3094 -83.8158 263° West 402 463 40,000  Level Indianapolis Center
03:37PM 40.2958 -83.9603 263° West 399 459 40,000  Level Indianapolis Center
03:38PM 40.2769 -84.1031 260° West 398 458 40,000  Level Indianapolis Center
03:39PM 40.2478 -84.2439 255° West 398 458 40,000  Level Indianapolis Center
03:40PM 40.2206 -84.3844 256° West 398 458 40,000  Level Indianapolis Center
03:41PM 40.1925 -84.5264 256° West 399 459 40,000  Level Indianapolis Center
03:42PM 40.1656 -84.6675 256° West 399 459 40,000  Level Indianapolis Center
03:43PM 40.1372 -84.8072 255° West 397 457 40,000  Level Indianapolis Center
03:44PM 40.1075 -84.9633 256° West 398 458 40,000  Level Indianapolis Center
03:46PM 40.0783 -85.1042 255° West 398 458 40,000  Level Indianapolis Center
03:47PM 40.0492 -85.2464 255° West 403 464 40,000  Level Indianapolis Center
03:48PM 40.0200 -85.3878 255° West 402 463 40,000  Level Indianapolis Center
03:49PM 39.9903 -85.5311 255° West 407 468 40,000  Level Indianapolis Center
03:50PM 39.9617 -85.6725 255° West 405 466 40,000  Level Indianapolis Center
03:51PM 39.9275 -85.8375 255° West 403 464 40,000  Level Indianapolis Center
03:52PM 39.8978 -85.9772 255° West 400 460 40,000  Level Indianapolis Center
03:53PM 39.8692 -86.1147 255° West 395 455 40,000  Level Indianapolis Center
03:54PM 39.8417 -86.2419 254° West 395 455 40,000 -60 Level Indianapolis Center
03:55PM 39.8114 -86.3789 254° West 394 453 39,900 -660 Descending Indianapolis Center
03:56PM 39.7831 -86.5192 255° West 387 445 38,700 -960 Descending Indianapolis Center
03:57PM 39.7494 -86.6753 254° West 383 441 38,000 -360 Descending Indianapolis Center
03:58PM 39.7206 -86.8094 254° West 384 442 38,000  Level Indianapolis Center
03:59PM 39.6911 -86.9458 254° West 388 447 38,000  Level Indianapolis Center
04:00PM 39.6617 -87.0833 254° West 393 452 38,000  Level Indianapolis Center
04:01PM 39.6311 -87.2208 254° West 394 453 38,000  Level Indianapolis Center
04:02PM 39.6003 -87.3583 254° West 394 453 38,000  Level Indianapolis Center
04:03PM 39.5700 -87.4972 254° West 398 458 38,000  Level Indianapolis Center
04:04PM 39.5389 -87.6356 254° West 399 459 38,000  Level Indianapolis Center
04:05PM 39.5069 -87.7736 253° West 397 457 38,000  Level Indianapolis Center
04:06PM 39.4833 -87.8794 254° West 399 459 38,000  Level Kansas City Center
04:07PM 39.4531 -88.0189 254° West 400 460 38,000  Level Kansas City Center
04:08PM 39.4217 -88.1578 254° West 402 463 38,000  Level Kansas City Center
04:09PM 39.3892 -88.2956 253° West 401 461 38,000  Level Kansas City Center
04:10PM 39.3553 -88.4381 253° West 408 470 38,000  Level Kansas City Center
04:11PM 39.3183 -88.6003 254° West 410 472 38,000  Level Kansas City Center
04:12PM 39.2839 -88.7403 252° West 410 472 38,000  Level Kansas City Center
04:13PM 39.2525 -88.8800 254° West 409 471 38,000  Level Kansas City Center
04:14PM 39.2194 -89.0194 253° West 408 470 38,000  Level Kansas City Center
04:15PM 39.1861 -89.1581 253° West 407 468 38,000  Level Kansas City Center
04:16PM 39.1478 -89.3161 253° West 408 470 38,000  Level Kansas City Center
04:17PM 39.1125 -89.4667 253° West 409 471 38,000  Level Kansas City Center
04:18PM 39.0778 -89.6047 252° West 408 470 38,000  Level Kansas City Center
04:19PM 39.0414 -89.7564 253° West 413 475 38,000  Level Kansas City Center
04:20PM 39.0072 -89.8958 253° West 412 474 38,000  Level Kansas City Center
04:21PM 38.9756 -90.0242 252° West 415 478 38,000  Level Kansas City Center
04:22PM 38.9408 -90.1656 253° West 416 479 38,000  Level Kansas City Center
04:23PM 38.9025 -90.3264 253° West 411 473 38,000  Level Kansas City Center
04:24PM 38.8650 -90.4692 251° West 417 480 38,000  Level Kansas City Center
04:25PM 38.8400 -90.6097 257° West 407 468 38,000  Level Kansas City Center
04:26PM 38.8253 -90.7592 263° West 416 479 38,000  Level Kansas City Center
04:27PM 38.8061 -90.9033 260° West 418 481 38,000  Level Kansas City Center
04:28PM 38.7833 -91.0761 260° West 414 476 38,000  Level Kansas City Center
04:29PM 38.7642 -91.2214 260° West 415 478 38,000  Level Kansas City Center
04:30PM 38.7456 -91.3656 261° West 414 476 38,000  Level Kansas City Center
04:31PM 38.7253 -91.5097 260° West 414 476 38,000  Level Kansas City Center
04:32PM 38.7044 -91.6644 260° West 418 481 38,000  Level Kansas City Center
04:33PM 38.6836 -91.8122 260° West 421 484 38,000  Level Kansas City Center
04:34PM 38.6617 -91.9606 259° West 425 489 38,000  Level Kansas City Center
04:36PM 38.6367 -92.1386 260° West 425 489 38,000  Level Kansas City Center
04:37PM 38.6136 -92.2856 259° West 424 488 38,000  Level Kansas City Center
04:38PM 38.5928 -92.4331 260° West 424 488 38,000  Level Kansas City Center
04:39PM 38.5706 -92.5789 259° West 421 484 38,000  Level Kansas City Center
04:40PM 38.5481 -92.7294 259° West 427 491 38,000  Level Kansas City Center
04:41PM 38.5258 -92.8772 259° West 426 490 38,000  Level Kansas City Center
04:42PM 38.5033 -93.0261 259° West 428 493 38,000  Level Kansas City Center
04:43PM 38.4758 -93.2058 259° West 430 495 38,000  Level Kansas City Center
04:44PM 38.4531 -93.3542 259° West 429 494 38,000  Level Kansas City Center
04:45PM 38.4303 -93.5008 259° West 425 489 38,000  Level Kansas City Center
04:46PM 38.4069 -93.6494 259° West 426 490 38,000  Level Kansas City Center
04:47PM 38.3839 -93.7975 259° West 426 490 38,000  Level Kansas City Center
04:48PM 38.3606 -93.9447 259° West 425 489 38,000  Level Kansas City Center
04:49PM 38.3375 -94.0969 259° West 428 493 38,000  Level Kansas City Center
04:50PM 38.3100 -94.2656 258° West 430 495 38,000  Level Kansas City Center
04:51PM 38.2858 -94.4092 258° West 432 497 38,000  Level Kansas City Center
04:52PM 38.2592 -94.5764 259° West 432 497 38,000  Level Kansas City Center
04:53PM 38.2356 -94.7194 258° West 432 497 38,000  Level Kansas City Center
04:54PM 38.2100 -94.8872 259° West 431 496 38,000  Level Kansas City Center
04:55PM 38.1869 -95.0303 258° West 431 496 38,000  Level Kansas City Center
04:56PM 38.1633 -95.1731 258° West 430 495 38,000  Level Kansas City Center
04:57PM 38.1347 -95.3389 258° West 429 494 38,000  Level Kansas City Center
04:58PM 38.1111 -95.4808 258° West 430 495 38,000  Level Kansas City Center
04:59PM 38.0819 -95.6472 257° West 430 495 38,000  Level Kansas City Center
05:00PM 38.0589 -95.7892 258° West 430 495 38,000  Level Kansas City Center
05:01PM 38.0325 -95.9311 257° West 432 497 38,000  Level Kansas City Center
05:02PM 38.0061 -96.0978 259° West 432 497 38,000  Level Kansas City Center
05:03PM 37.9797 -96.2542 258° West 438 504 38,000  Level Kansas City Center
05:04PM 37.9544 -96.4039 258° West 435 501 38,000  Level Kansas City Center
05:05PM 37.9292 -96.5533 258° West 434 499 38,000  Level Kansas City Center
05:06PM 37.9044 -96.7036 258° West 435 501 38,000  Level Kansas City Center
05:07PM 37.8786 -96.8536 258° West 437 503 38,000  Level Kansas City Center
05:08PM 37.8517 -97.0047 257° West 438 504 38,000  Level Kansas City Center
05:10PM 37.8181 -97.1867 257° West 441 507 38,000  Level Kansas City Center
05:11PM 37.7908 -97.3389 257° West 443 510 38,000  Level Kansas City Center
05:12PM 37.7636 -97.4836 257° West 444 511 38,000  Level Kansas City Center
05:13PM 37.7358 -97.6350 257° West 443 510 38,000  Level Kansas City Center
05:14PM 37.7064 -97.7872 256° West 445 512 38,000  Level Kansas City Center
05:15PM 37.6767 -97.9383 256° West 444 511 38,000  Level Kansas City Center
05:16PM 37.6422 -98.1192 257° West 443 510 38,000  Level Kansas City Center
05:17PM 37.6158 -98.2564 256° West 444 511 38,000  Level Kansas City Center
05:18PM 37.5844 -98.4089 255° West 448 516 38,000  Level Kansas City Center
05:19PM 37.5547 -98.5625 256° West 449 517 38,000  Level Kansas City Center
05:20PM 37.5233 -98.7156 256° West 450 518 38,000  Level Kansas City Center
05:21PM 37.4856 -98.9000 256° West 453 521 38,000  Level Kansas City Center
05:22PM 37.4539 -99.0514 255° West 450 518 38,000  Level Kansas City Center
05:23PM 37.4228 -99.2036 256° West 447 514 38,000  Level Kansas City Center
05:24PM 37.3919 -99.3542 256° West 446 513 38,000  Level Kansas City Center
05:25PM 37.3572 -99.5225 256° West 444 511 38,000  Level Kansas City Center
05:26PM 37.3264 -99.6667 255° West 446 513 38,000  Level Kansas City Center
05:27PM 37.2972 -99.8103 256° West 444 511 38,000  Level Kansas City Center
05:28PM 37.2608 -99.9789 255° West 446 513 38,000  Level Kansas City Center
05:29PM 37.2294 -100.1236 255° West 447 514 38,000  Level Kansas City Center
05:30PM 37.1939 -100.2928 255° West 448 516 38,000  Level Kansas City Center
05:31PM 37.1622 -100.4386 255° West 449 517 38,000  Level Kansas City Center
05:32PM 37.1297 -100.5850 254° West 452 520 38,000  Level Kansas City Center
05:33PM 37.0919 -100.7569 255° West 455 524 38,000  Level Kansas City Center
05:34PM 37.0581 -100.9053 254° West 458 527 38,000  Level Kansas City Center
05:35PM 37.0117 -101.0753 251° West 462 532 38,000  Level Kansas City Center
05:36PM 36.9669 -101.2183 249° West 462 532 38,000  Level Kansas City Center
05:37PM 36.9231 -101.3597 249° West 457 526 38,000  Level Kansas City Center
05:38PM 36.8631 -101.5486 248° West 457 526 38,000  Level Albuquerque Center
05:39PM 36.8178 -101.6892 248° West 456 525 38,000  Level Albuquerque Center
05:40PM 36.7664 -101.8539 249° West 456 525 38,000  Level Albuquerque Center
05:42PM 36.7211 -101.9950 248° West 456 525 38,000  Level Albuquerque Center
05:43PM 36.6294 -102.2742 248° West 457 526 38,000  Level Kansas City Center
05:45PM 36.5736 -102.4489 248° West 452 520 38,000  Level Albuquerque Center
05:46PM 36.5269 -102.5956 248° West 456 525 38,000  Level Albuquerque Center
05:47PM 36.4789 -102.7392 247° West 455 524 38,000  Level Albuquerque Center
05:48PM 36.4289 -102.8933 248° West 456 525 38,000  Level Albuquerque Center
05:49PM 36.3808 -103.0408 248° West 457 526 38,000  Level Albuquerque Center
05:50PM 36.3317 -103.1828 247° West 448 516 38,000  Level Albuquerque Center
05:51PM 36.2850 -103.3278 248° West 448 516 38,000  Level Albuquerque Center
05:52PM 36.2361 -103.4719 247° West 451 519 38,000  Level Albuquerque Center
05:53PM 36.1883 -103.6150 248° West 448 516 38,000  Level Albuquerque Center
05:54PM 36.1311 -103.7836 247° West 450 518 38,000  Level Albuquerque Center
05:55PM 36.0878 -103.9247 249° West 446 513 38,000  Level Albuquerque Center
05:56PM 36.0617 -104.0686 257° West 431 496 38,000  Level Albuquerque Center
05:57PM 36.0333 -104.2153 257° West 435 501 38,000  Level Albuquerque Center
05:58PM 36.0056 -104.3608 257° West 435 501 38,000  Level Albuquerque Center
05:59PM 35.9769 -104.5081 257° West 437 503 38,000  Level Albuquerque Center
06:00PM 35.9486 -104.6528 256° West 435 501 38,000  Level Albuquerque Center
06:01PM 35.9189 -104.8008 256° West 439 505 38,000  Level Albuquerque Center
06:02PM 35.8889 -104.9453 256° West 438 504 38,000  Level Albuquerque Center
06:03PM 35.8550 -105.1144 256° West 435 501 38,000  Level Albuquerque Center
06:04PM 35.8267 -105.2592 256° West 433 498 38,000  Level Albuquerque Center
06:05PM 35.7975 -105.4022 256° West 430 495 38,000  Level Albuquerque Center
06:06PM 35.7675 -105.5458 256° West 431 496 38,000  Level Albuquerque Center
06:07PM 35.7414 -105.6761 256° West 431 496 38,000  Level Albuquerque Center
06:08PM 35.7111 -105.8181 255° West 429 494 38,000  Level Albuquerque Center
06:09PM 35.6817 -105.9600 256° West 430 495 38,000  Level Albuquerque Center
06:10PM 35.6456 -106.1317 256° West 433 498 38,000  Level Albuquerque Center
06:11PM 35.6172 -106.2764 256° West 437 503 38,000  Level Albuquerque Center
06:12PM 35.5875 -106.4200 256° West 436 502 38,000  Level Albuquerque Center
06:13PM 35.5547 -106.5656 255° West 441 507 38,000  Level Albuquerque Center
06:14PM 35.5242 -106.7106 256° West 444 511 38,000  Level Albuquerque Center
06:15PM 35.4925 -106.8581 255° West 448 516 38,000  Level Albuquerque Center
06:16PM 35.4589 -107.0050 254° West 452 520 38,000  Level Albuquerque Center
06:17PM 35.4214 -107.1808 255° West 450 518 38,000  Level Albuquerque Center
06:18PM 35.3878 -107.3156 253° West 449 517 38,000  Level Albuquerque Center
06:19PM 35.3483 -107.4717 253° West 450 518 38,000  Level Albuquerque Center
06:20PM 35.3122 -107.6158 253° West 443 510 38,000  Level Albuquerque Center
06:21PM 35.2739 -107.7769 254° West 440 506 38,000  Level Albuquerque Center
06:22PM 35.2397 -107.9122 253° West 437 503 38,000  Level Albuquerque Center
06:24PM 35.2033 -108.0494 252° West 439 505 38,000  Level Albuquerque Center
06:25PM 35.1650 -108.2064 253° West 435 501 38,000  Level Albuquerque Center
06:26PM 35.1306 -108.3428 253° West 435 501 38,000  Level Albuquerque Center
06:27PM 35.0894 -108.5014 252° West 437 503 38,000  Level Albuquerque Center
06:28PM 35.0547 -108.6381 253° West 438 504 38,000  Level Albuquerque Center
06:29PM 35.0189 -108.7742 252° West 439 505 38,000  Level Albuquerque Center
06:30PM 34.9772 -108.9347 252° West 441 507 38,000  Level Albuquerque Center
06:31PM 34.9411 -109.0747 253° West 447 514 38,000  Level Albuquerque Center
06:32PM 34.8983 -109.2372 252° West 449 517 38,000  Level Albuquerque Center
06:33PM 34.8611 -109.3756 252° West 449 517 38,000  Level Albuquerque Center
06:34PM 34.8231 -109.5128 251° West 447 514 38,000 -1,020 Level Albuquerque Center
06:35PM 34.7778 -109.6689 251° West 440 506 36,000 -1,020 Descending Albuquerque Center
06:36PM 34.7278 -109.8017 245° Southwest 446 513 36,000  Level Albuquerque Center
06:37PM 34.6789 -109.9358 246° West 452 520 36,000  Level Albuquerque Center
06:38PM 34.6203 -110.0917 245° Southwest 454 522 36,000  Level Albuquerque Center
06:39PM 34.5694 -110.2297 246° West 462 532 36,000 -1,440 Level Albuquerque Center
06:40PM 34.4839 -110.3622 232° Southwest 448 516 33,100 -2,640 Descending Albuquerque Center
06:41PM 34.4244 -110.4756 238° Southwest 455 524 30,700 -2,460 Descending Albuquerque Center
06:42PM 34.3558 -110.5997 236° Southwest 448 516 28,100 -2,460 Descending Albuquerque Center
06:43PM 34.2847 -110.7183 234° Southwest 439 505 25,700 -2,280 Descending Albuquerque Center
06:44PM 34.2011 -110.8519 233° Southwest 421 484 23,500 -2,100 Descending Albuquerque Center
06:45PM 34.1400 -110.9600 236° Southwest 398 458 21,400 -2,100 Descending Albuquerque Center
06:46PM 34.0797 -111.0639 235° Southwest 384 442 19,300 -1,980 Descending Albuquerque Center
06:47PM 34.0211 -111.1644 235° Southwest 372 428 17,400 -1,920 Descending Albuquerque Center
06:48PM 33.9664 -111.2589 235° Southwest 350 403 15,400 -1,860 Descending Albuquerque Center
06:49PM 33.9125 -111.3536 236° Southwest 342 394 13,600 -1,680 Descending Albuquerque Center
06:50PM 33.8508 -111.4339 227° Southwest 326 375 12,100 -1,560 Descending Albuquerque Center
06:51PM 33.7794 -111.4928 214° Southwest 312 359 10,500 -1,440 Descending Albuquerque Center
06:52PM 33.7136 -111.5497 216° Southwest 293 337 9,200 -1,020 Descending Albuquerque Center
06:53PM 33.6506 -111.6039 216° Southwest 278 320 8,500 -840 Descending Albuquerque Center
06:54PM 33.5925 -111.6522 215° Southwest 256 295 7,500 -1,080 Descending Albuquerque Center
06:55PM 33.5350 -111.7008 215° Southwest 252 290 6,300 -1,320 Descending Albuquerque Center
06:56PM 33.4822 -111.7753 230° Southwest 247 284 4,800 -1,140 Descending Albuquerque Center
06:57PM 33.4511 -111.8383 239° Southwest 220 253 4,000 -900 Descending Albuquerque Center
06:58PM 33.4408 -111.8881 256° West 154 177 3,000 -840 Descending Albuquerque Center
06:59PM 33.4319 -111.9317 256° West 137 158 2,300 -780 Descending Albuquerque Center
07:00PM 33.4311 -111.9775 269° West 137 158 1,500 -600 Descending Albuquerque Center
07:01PM 33.4297 -112.0242 268° West 138 159 1,100 -420 Descending Albuquerque Center
07:03PM 33.4343 -112.0116 90° East  Level Estimated